This is the latest recevied weather packets stored in our database for station/object KE5AKC. If no packets are shown the sender has not sent any weather packets the latest 10 day(s).
| Time | Temp. | Humidity | Pressure | Rain* | Wind** | Luminosity | Snow |
|---|---|---|---|---|---|---|---|
| 1777138874 | 30° C | 64% | 1008.3 hPa | 0 mm | - | 501 W/m² | - |
| 1777138569 | 30.56° C | 64% | 1008.6 hPa | 0 mm | - | 335 W/m² | - |
| 1777138265 | 30° C | 65% | 1008.3 hPa | 0 mm | - | 393 W/m² | - |
| 1777137962 | 30° C | 66% | 1008.6 hPa | 0 mm | - | 792 W/m² | - |
| 1777137657 | 29.44° C | 68% | 1008.6 hPa | 0 mm | - | 394 W/m² | - |
| 1777137355 | 29.44° C | 69% | 1008.3 hPa | 0 mm | - | 340 W/m² | - |
| 1777137052 | 29.44° C | 69% | 1008.6 hPa | 0 mm | - | 292 W/m² | - |
| 1777136749 | 28.89° C | 68% | 1008.6 hPa | 0 mm | - | 298 W/m² | - |
| 1777136446 | 29.44° C | 67% | 1008.6 hPa | 0 mm | - | 352 W/m² | - |
| 1777136143 | 29.44° C | 68% | 1009 hPa | 0 mm | - | 368 W/m² | - |
| 1777135839 | 30° C | 67% | 1008.6 hPa | 0 mm | - | 416 W/m² | - |
| 1777135535 | 30° C | 66% | 1008.6 hPa | 0 mm | - | 419 W/m² | - |
| 1777135232 | 30° C | 66% | 1009 hPa | 0 mm | - | 1048 W/m² | - |
| 1777134929 | 29.44° C | 69% | 1008.6 hPa | 0 mm | - | 1012 W/m² | - |
| 1777134626 | 28.89° C | 70% | 1008.6 hPa | 0 mm | - | 663 W/m² | - |
| 1777134322 | 28.89° C | 71% | 1008.6 hPa | 0 mm | - | 410 W/m² | - |
| 1777134019 | 29.44° C | 69% | 1008.6 hPa | 0 mm | - | 300 W/m² | - |
| 1777133715 | 28.89° C | 70% | 1008.6 hPa | 0 mm | - | 298 W/m² | - |
| 1777133415 | 28.89° C | 71% | 1008.6 hPa | 0 mm | - | 313 W/m² | - |
| 1777133109 | 29.44° C | 69% | 1008.3 hPa | 0 mm | - | 563 W/m² | - |
| 1777132805 | 28.89° C | 70% | 1008.6 hPa | 0 mm | - | 748 W/m² | - |
| 1777132502 | 28.89° C | 72% | 1008.3 hPa | 0 mm | - | 815 W/m² | - |
| 1777132198 | 28.89° C | 72% | 1008.3 hPa | 0 mm | - | 404 W/m² | - |
| 1777131894 | 28.33° C | 73% | 1008 hPa | 0 mm | - | 766 W/m² | - |
| 1777131587 | 27.78° C | 76% | 1008.3 hPa | 0 mm | - | 745 W/m² | - |
* Rain latest hour (hover to see other rain measurements)
** Current wind speed in m/s (hover to see current wind gust speed)